Time;durP1;ratioP1;P1;durP2;ratioP2;P2;SDS_P1;SDS_P2;PMS_P1;PMS_P2;Temp;Humidity;BMP_temperature;BMP_pressure;BME280_temperature;BME280_humidity;BME280_pressure;Samples;Min_cycle;Max_cycle;Signal;HPM_P1;HPM_P2
2021/01/26 00:02:16;;;;;;;27.33;9.57;;;0.60;99.90;;;;;;4966091;27;20205;-82
2021/01/26 00:04:39;;;;;;;27.52;9.63;;;0.60;99.90;;;;;;4971209;27;20190;-84
2021/01/26 00:07:02;;;;;;;25.35;8.85;;;0.60;99.90;;;;;;4973499;27;20090;-83
2021/01/26 00:09:26;;;;;;;30.08;9.63;;;0.70;99.90;;;;;;4942105;27;20100;-84
2021/01/26 00:11:50;;;;;;;35.60;9.88;;;0.60;99.90;;;;;;4959504;27;21567;-83
2021/01/26 00:14:15;;;;;;;39.53;11.82;;;;;;;;;;4955490;27;20478;-84
2021/01/26 00:16:38;;;;;;;38.63;11.43;;;0.60;99.90;;;;;;4968372;27;20107;-83
2021/01/26 00:19:01;;;;;;;36.45;10.93;;;0.10;99.90;;;;;;4968086;27;20100;-85
2021/01/26 00:24:41;;;;;;;32.80;10.40;;;0.90;99.90;;;;;;4937744;27;20118;-81
2021/01/26 00:27:05;;;;;;;29.15;10.45;;;0.60;99.90;;;;;;4956711;27;20099;-83
2021/01/26 00:29:29;;;;;;;37.65;11.32;;;0.60;99.90;;;;;;4937414;27;21050;-83
2021/01/26 00:31:51;;;;;;;34.85;11.15;;;0.60;99.90;;;;;;4945068;27;20095;-83
2021/01/26 00:34:16;;;;;;;34.35;10.40;;;0.60;99.90;;;;;;4955550;27;20100;-82
2021/01/26 00:36:39;;;;;;;34.50;10.32;;;0.60;99.90;;;;;;4960241;27;20535;-83
2021/01/26 00:39:02;;;;;;;35.30;11.38;;;0.60;99.90;;;;;;4962409;27;20096;-83
2021/01/26 00:41:25;;;;;;;33.80;11.00;;;0.60;99.90;;;;;;4966919;27;20213;-83
2021/01/26 00:47:06;;;;;;;45.05;12.55;;;0.60;99.90;;;;;;4959928;27;20087;-83
2021/01/26 00:49:28;;;;;;;41.90;14.02;;;0.60;99.90;;;;;;4967361;27;20080;-83
2021/01/26 00:51:51;;;;;;;46.03;14.73;;;;;;;;;;4972874;27;20529;-84
2021/01/26 00:54:14;;;;;;;49.75;15.18;;;0.50;99.90;;;;;;4960159;27;20151;-83
2021/01/26 00:56:37;;;;;;;59.70;16.27;;;0.50;99.90;;;;;;4970512;27;20091;-82
2021/01/26 00:59:00;;;;;;;56.40;15.93;;;0.50;99.90;;;;;;4976079;27;20086;-84
2021/01/26 01:01:28;;;;;;;53.20;16.55;;;0.50;99.90;;;;;;4955678;27;20096;-82
2021/01/26 01:03:52;;;;;;;64.00;17.17;;;0.50;99.90;;;;;;4957898;27;20503;-84
2021/01/26 01:06:14;;;;;;;53.22;17.52;;;0.50;99.90;;;;;;4959704;27;20100;-85
2021/01/26 01:08:38;;;;;;;45.75;15.05;;;0.50;99.90;;;;;;4961171;27;20098;-84
2021/01/26 01:11:00;;;;;;;56.13;16.65;;;;;;;;;;4955879;27;20098;-82
2021/01/26 01:13:24;;;;;;;56.00;17.38;;;0.50;99.90;;;;;;4971443;27;20088;-82
2021/01/26 01:15:47;;;;;;;61.20;17.52;;;0.40;99.90;;;;;;4966751;27;20096;-84
2021/01/26 01:18:10;;;;;;;52.65;16.95;;;0.30;99.90;;;;;;4952430;27;20697;-83
2021/01/26 01:20:34;;;;;;;52.97;16.88;;;0.30;99.90;;;;;;4955487;27;20084;-84
2021/01/26 01:22:57;;;;;;;55.85;16.65;;;0.20;99.90;;;;;;4965277;27;20093;-83
2021/01/26 01:25:20;;;;;;;48.92;16.60;;;0.20;99.90;;;;;;4960180;27;20189;-84
2021/01/26 01:27:43;;;;;;;59.50;17.73;;;0.10;99.90;;;;;;4955230;27;20098;-80
2021/01/26 01:30:07;;;;;;;50.58;16.83;;;0.00;99.90;;;;;;4959272;27;20098;-83
2021/01/26 01:32:30;;;;;;;52.30;16.92;;;-0.10;99.90;;;;;;4955512;27;20098;-83
2021/01/26 01:34:53;;;;;;;44.55;16.23;;;-0.20;99.90;;;;;;4957383;27;20499;-84
2021/01/26 01:37:17;;;;;;;57.55;16.95;;;-0.30;99.90;;;;;;4958262;27;20128;-84
2021/01/26 01:39:39;;;;;;;53.65;15.85;;;-0.30;99.90;;;;;;4946553;28;20090;-84
2021/01/26 01:42:07;;;;;;;53.30;17.27;;;-0.40;99.90;;;;;;4968031;27;20104;-84
2021/01/26 01:44:30;;;;;;;46.58;14.63;;;-0.40;99.90;;;;;;4974390;27;21100;-85
2021/01/26 01:46:58;;;;;;;50.42;16.90;;;-0.50;99.90;;;;;;4975092;27;20126;-84
2021/01/26 01:49:26;;;;;;;56.20;15.73;;;-0.50;99.90;;;;;;4973722;27;20785;-85
2021/01/26 01:51:49;;;;;;;57.67;16.20;;;-0.50;99.90;;;;;;4975983;27;20105;-86
2021/01/26 01:54:16;;;;;;;50.75;15.18;;;-0.50;99.90;;;;;;4960759;27;20474;-85
2021/01/26 01:56:42;;;;;;;49.00;15.68;;;-0.50;99.90;;;;;;4976212;27;20091;-85
2021/01/26 01:59:10;;;;;;;55.22;16.27;;;-0.50;99.90;;;;;;4958397;27;20143;-86
2021/01/26 02:01:33;;;;;;;44.53;15.80;;;-0.40;99.90;;;;;;4961713;28;20095;-81
2021/01/26 02:04:00;;;;;;;46.80;15.43;;;-0.30;99.90;;;;;;4945071;28;20604;-85
2021/01/26 02:06:26;;;;;;;48.85;16.35;;;-0.20;99.90;;;;;;4960703;27;20171;-85
2021/01/26 02:08:53;;;;;;;48.78;15.52;;;-0.20;99.90;;;;;;4954481;27;20115;-83
2021/01/26 02:11:17;;;;;;;45.10;15.95;;;-0.10;99.90;;;;;;4961500;27;20100;-85
2021/01/26 02:13:40;;;;;;;45.75;15.63;;;-0.10;99.90;;;;;;4961396;27;20082;-86
2021/01/26 02:16:05;;;;;;;46.38;15.50;;;-0.10;99.90;;;;;;4959769;27;20185;-85
2021/01/26 02:18:43;;;;;;;56.58;17.30;;;-0.20;99.90;;;;;;4962004;27;20590;-85
2021/01/26 02:21:45;;;;;;;42.38;15.55;;;-0.20;99.90;;;;;;4959595;27;20089;-85
2021/01/26 02:24:37;;;;;;;49.30;15.75;;;-0.30;99.90;;;;;;4962856;27;20097;-86
2021/01/26 02:27:41;;;;;;;43.13;13.93;;;-0.30;99.90;;;;;;4957888;27;20141;-84
2021/01/26 02:30:37;;;;;;;44.15;14.85;;;-0.20;99.90;;;;;;4914826;27;20097;-85
2021/01/26 02:33:52;;;;;;;45.95;14.77;;;-0.20;99.90;;;;;;4960676;27;20093;-85
2021/01/26 02:36:49;;;;;;;45.33;15.05;;;-0.10;99.90;;;;;;4945028;27;20523;-83
2021/01/26 02:39:35;;;;;;;51.05;16.45;;;-0.20;99.90;;;;;;4959931;27;20084;-85
2021/01/26 02:42:18;;;;;;;50.20;16.00;;;-0.20;99.90;;;;;;4956496;27;20446;-86
2021/01/26 02:44:53;;;;;;;45.53;15.23;;;-0.20;99.90;;;;;;4950974;27;20099;-86
2021/01/26 02:47:25;;;;;;;47.83;16.98;;;-0.20;99.90;;;;;;4959392;27;20086;-86
2021/01/26 02:49:52;;;;;;;56.90;17.45;;;-0.20;99.90;;;;;;4964737;27;20093;-87
2021/01/26 02:52:20;;;;;;;53.83;17.30;;;-0.20;99.90;;;;;;4965905;27;20154;-86
2021/01/26 02:54:52;;;;;;;54.83;17.35;;;-0.30;99.90;;;;;;4964044;27;20086;-85
2021/01/26 02:57:18;;;;;;;55.40;17.67;;;-0.30;99.90;;;;;;4963096;27;20151;-86
2021/01/26 02:59:50;;;;;;;56.83;17.20;;;-0.30;99.90;;;;;;4962866;27;20516;-86
2021/01/26 03:02:18;;;;;;;52.20;16.30;;;-0.40;99.90;;;;;;4962439;27;20098;-86
2021/01/26 03:04:49;;;;;;;57.40;18.50;;;-0.40;99.90;;;;;;4965424;27;20501;-86
2021/01/26 03:07:14;;;;;;;52.22;18.23;;;;;;;;;;4951794;27;20547;-86
2021/01/26 03:09:41;;;;;;;56.47;18.42;;;-0.50;99.90;;;;;;4957383;27;20144;-81
2021/01/26 03:12:10;;;;;;;49.72;16.30;;;-0.50;99.90;;;;;;4965971;27;20099;-86
2021/01/26 03:14:39;;;;;;;56.60;17.52;;;-0.50;99.90;;;;;;4962872;27;20086;-86
2021/01/26 03:17:09;;;;;;;59.85;17.98;;;-0.50;99.90;;;;;;4964146;27;20095;-85
2021/01/26 03:19:35;;;;;;;57.30;16.88;;;-0.50;99.90;;;;;;4960956;27;20090;-86
2021/01/26 03:21:59;;;;;;;;;;;-0.50;99.90;;;;;;4960645;27;20095;-84
2021/01/26 03:24:26;;;;;;;52.20;17.23;;;-0.40;99.90;;;;;;4959541;27;20006;-86
2021/01/26 03:26:50;;;;;;;53.47;17.55;;;-0.40;99.90;;;;;;4962826;27;20103;-87
2021/01/26 03:29:18;;;;;;;59.20;17.50;;;-0.40;99.90;;;;;;4966231;27;20245;-86
2021/01/26 03:31:47;;;;;;;57.28;19.25;;;-0.30;99.90;;;;;;4960369;27;20108;-87
2021/01/26 03:34:10;;;;;;;58.60;18.17;;;-0.30;99.90;;;;;;4960596;27;20093;-87
2021/01/26 03:36:32;;;;;;;63.33;20.00;;;;;;;;;;4974184;27;20082;-86
2021/01/26 03:38:56;;;;;;;53.72;17.80;;;-0.20;99.90;;;;;;4964129;27;20418;-87
2021/01/26 03:41:19;;;;;;;59.15;18.92;;;-0.20;99.90;;;;;;4953109;27;20097;-87
2021/01/26 03:43:43;;;;;;;58.15;18.45;;;-0.30;99.90;;;;;;4974224;27;20088;-86
2021/01/26 03:46:13;;;;;;;62.95;21.45;;;-0.30;99.90;;;;;;4975711;27;20524;-87
2021/01/26 03:48:52;;;;;;;63.40;19.38;;;-0.30;99.90;;;;;;4963904;27;20117;-85
2021/01/26 03:51:30;;;;;;;78.28;21.40;;;-0.40;99.90;;;;;;4959882;27;20149;-86
2021/01/26 03:54:16;;;;;;;65.32;19.02;;;-0.40;99.90;;;;;;4951466;27;20092;-86
2021/01/26 03:57:18;;;;;;;64.78;19.15;;;-0.50;99.90;;;;;;4961859;27;20105;-86
2021/01/26 03:59:53;;;;;;;59.67;19.25;;;-0.40;99.90;;;;;;4932081;27;20488;-87
2021/01/26 04:02:24;;;;;;;61.13;20.20;;;-0.40;99.90;;;;;;4960582;27;20247;-87
2021/01/26 04:04:52;;;;;;;67.30;21.27;;;-0.40;99.90;;;;;;4958749;27;20083;-84
2021/01/26 04:07:21;;;;;;;61.55;20.55;;;-0.40;99.90;;;;;;4964897;27;20107;-87
2021/01/26 04:09:52;;;;;;;62.75;19.75;;;-0.40;99.90;;;;;;4945468;27;20097;-82
2021/01/26 04:12:20;;;;;;;59.20;20.08;;;-0.30;99.90;;;;;;4961209;27;20123;-86
2021/01/26 04:14:51;;;;;;;65.07;20.40;;;-0.30;99.90;;;;;;4972406;27;20099;-86
2021/01/26 04:17:21;;;;;;;67.88;20.45;;;-0.30;99.90;;;;;;4959534;27;20103;-86
2021/01/26 04:19:48;;;;;;;65.47;21.52;;;-0.20;99.90;;;;;;4963249;27;20566;-87
2021/01/26 04:22:13;;;;;;;69.32;23.25;;;0.90;99.90;;;;;;4959176;27;20101;-86
2021/01/26 04:24:36;;;;;;;76.63;23.38;;;-0.20;99.90;;;;;;4961379;27;20085;-86
2021/01/26 04:27:01;;;;;;;77.53;23.33;;;-0.10;99.90;;;;;;4950293;27;20481;-86
2021/01/26 04:29:24;;;;;;;65.78;20.70;;;-0.10;99.90;;;;;;4961234;27;20099;-87
2021/01/26 04:31:52;;;;;;;70.00;23.23;;;-0.10;99.90;;;;;;4961615;27;20138;-86
2021/01/26 04:34:16;;;;;;;82.45;23.92;;;-0.10;99.90;;;;;;4953590;27;20103;-87
2021/01/26 04:36:39;;;;;;;77.40;22.35;;;-0.10;99.90;;;;;;4961213;27;20088;-86
2021/01/26 04:39:02;;;;;;;77.55;23.92;;;-0.20;99.90;;;;;;4973658;27;20088;-87
2021/01/26 04:41:40;;;;;;;86.18;24.00;;;-0.30;99.90;;;;;;4974705;27;20091;-86
2021/01/26 04:44:55;;;;;;;82.18;24.30;;;-0.30;99.90;;;;;;4950996;27;22204;-81
2021/01/26 04:47:23;;;;;;;73.80;23.38;;;-0.40;99.90;;;;;;4879082;28;20154;-85
2021/01/26 04:49:58;;;;;;;75.30;24.23;;;-0.60;99.90;;;;;;4878159;28;20589;-86
2021/01/26 04:52:37;;;;;;;79.57;22.30;;;-0.70;99.90;;;;;;4924176;27;20165;-86
2021/01/26 04:55:11;;;;;;;72.78;23.23;;;-0.80;99.90;;;;;;4956903;27;20241;-86
2021/01/26 04:57:49;;;;;;;80.30;20.55;;;-0.90;99.90;;;;;;4957217;27;20091;-86
2021/01/26 05:00:21;;;;;;;76.53;23.90;;;-0.90;99.90;;;;;;4949036;27;20106;-87
2021/01/26 05:02:55;;;;;;;83.90;22.63;;;;;;;;;;4961074;27;20466;-86
2021/01/26 05:05:21;;;;;;;72.78;21.10;;;-1.00;99.90;;;;;;4959946;27;20100;-87
2021/01/26 05:07:44;;;;;;;;;;;-1.00;99.90;;;;;;4961413;27;20105;-87
2021/01/26 05:10:11;;;;;;;65.22;21.73;;;-1.10;99.90;;;;;;4961645;27;19971;-87
2021/01/26 05:12:39;;;;;;;71.65;22.48;;;-1.10;99.90;;;;;;4965131;27;20149;-88
2021/01/26 05:15:04;;;;;;;70.05;22.17;;;-1.20;99.90;;;;;;4968598;27;20084;-86
2021/01/26 05:17:35;;;;;;;76.22;23.52;;;-1.20;99.90;;;;;;4956126;27;20135;-88
2021/01/26 05:20:05;;;;;;;90.25;24.40;;;-1.30;99.90;;;;;;4958848;27;20123;-87
2021/01/26 05:22:35;;;;;;;70.93;22.20;;;-1.30;99.90;;;;;;4961990;27;20530;-88
2021/01/26 05:25:03;;;;;;;77.43;21.90;;;-1.40;99.90;;;;;;4960150;27;20433;-88
2021/01/26 05:27:26;;;;;;;82.40;22.63;;;-1.50;99.90;;;;;;4961053;27;20520;-89
2021/01/26 05:29:50;;;;;;;71.60;21.98;;;-1.40;99.90;;;;;;4961284;27;20107;-88
2021/01/26 05:32:13;;;;;;;77.28;22.58;;;-1.40;99.90;;;;;;4960786;27;20107;-87
2021/01/26 05:34:38;;;;;;;75.20;23.30;;;-1.40;99.90;;;;;;4960605;27;20087;-87
2021/01/26 05:37:01;;;;;;;54.55;15.05;;;-1.40;99.90;;;;;;4960094;27;20099;-86
2021/01/26 05:39:31;;;;;;;81.97;22.48;;;-1.40;99.90;;;;;;4974981;27;20091;-90
2021/01/26 05:41:53;;;;;;;84.13;23.85;;;-1.40;99.90;;;;;;4961872;27;20084;-89
2021/01/26 05:44:18;;;;;;;76.65;24.63;;;-1.40;99.90;;;;;;4968658;27;21134;-90
2021/01/26 05:46:44;;;;;;;81.30;23.60;;;-1.50;99.90;;;;;;4969768;27;20093;-89
2021/01/26 05:49:07;;;;;;;82.40;24.70;;;-1.40;99.90;;;;;;4959007;28;20096;-87
2021/01/26 05:51:30;;;;;;;73.03;24.63;;;-1.40;99.90;;;;;;4963541;28;20174;-87
2021/01/26 05:53:57;;;;;;;84.32;23.75;;;-1.40;99.90;;;;;;4966653;28;20092;-89
2021/01/26 05:56:23;;;;;;;70.28;23.50;;;-1.40;99.90;;;;;;4974951;27;20588;-88
2021/01/26 05:58:52;;;;;;;75.57;23.05;;;-1.40;99.90;;;;;;4956684;27;21260;-90
2021/01/26 06:01:32;;;;;;;90.43;23.58;;;-1.40;99.90;;;;;;4964184;27;20094;-90
2021/01/26 06:04:12;;;;;;;73.50;22.75;;;-1.40;99.90;;;;;;4955117;27;20099;-89
2021/01/26 06:06:50;;;;;;;78.40;24.25;;;-1.40;99.90;;;;;;4964454;27;20131;-89
2021/01/26 06:09:26;;;;;;;73.00;24.17;;;-1.50;99.90;;;;;;4969573;27;20439;-89
2021/01/26 06:12:04;;;;;;;73.35;22.00;;;-1.50;99.90;;;;;;4946717;28;20103;-89
2021/01/26 06:14:27;;;;;;;70.07;23.45;;;-1.40;99.90;;;;;;4964688;28;20123;-89
2021/01/26 06:17:04;;;;;;;72.32;24.00;;;-1.50;99.90;;;;;;4963143;28;20090;-90
2021/01/26 06:19:28;;;;;;;69.65;22.90;;;;;;;;;;4959774;28;20105;-90
2021/01/26 06:21:53;;;;;;;77.80;24.15;;;-1.40;99.90;;;;;;4963944;28;20119;-90
2021/01/26 06:24:18;;;;;;;86.27;26.47;;;-1.40;99.90;;;;;;4960861;28;20139;-90
2021/01/26 06:27:01;;;;;;;66.85;23.52;;;-1.40;99.90;;;;;;4953073;28;20086;-90
2021/01/26 06:29:32;;;;;;;72.35;23.63;;;-1.30;99.90;;;;;;4968567;28;20095;-90
2021/01/26 06:32:05;;;;;;;72.20;22.55;;;-1.30;99.90;;;;;;4960978;28;20096;-89
2021/01/26 06:34:47;;;;;;;75.93;23.08;;;-1.20;99.90;;;;;;4967456;28;20166;-89
2021/01/26 06:37:56;;;;;;;75.75;25.67;;;-1.10;99.90;;;;;;4960535;28;20092;-86
2021/01/26 06:40:38;;;;;;;77.72;23.90;;;-1.10;99.90;;;;;;4906502;28;20088;-89
2021/01/26 06:43:09;;;;;;;75.30;23.65;;;-1.00;99.90;;;;;;4965946;28;20098;-90
2021/01/26 06:45:39;;;;;;;74.40;23.70;;;-0.90;99.90;;;;;;4961587;28;20097;-86
2021/01/26 06:48:40;;;;;;;71.30;23.63;;;-0.80;99.90;;;;;;4965274;28;20083;-90
2021/01/26 06:51:21;;;;;;;76.57;24.08;;;-0.80;99.90;;;;;;4970964;27;20098;-88
2021/01/26 06:54:03;;;;;;;77.60;23.88;;;-0.70;99.90;;;;;;4964940;27;20094;-89
2021/01/26 06:56:58;;;;;;;69.82;24.90;;;-0.70;99.90;;;;;;4965610;27;20103;-89
2021/01/26 07:00:04;;;;;;;71.82;23.83;;;-0.70;99.90;;;;;;4965844;27;20092;-88
2021/01/26 07:02:51;;;;;;;67.47;22.42;;;-0.70;99.90;;;;;;4932558;27;20258;-87
2021/01/26 07:05:44;;;;;;;64.65;23.13;;;-0.60;99.90;;;;;;4966746;27;20083;-86
2021/01/26 07:08:37;;;;;;;72.82;24.90;;;-0.50;99.90;;;;;;4966348;27;20150;-88
2021/01/26 07:11:26;;;;;;;83.45;27.55;;;-0.50;99.90;;;;;;4958675;27;20100;-89
2021/01/26 07:13:56;;;;;;;78.10;25.23;;;-0.40;99.90;;;;;;4965669;27;20715;-89
2021/01/26 07:16:34;;;;;;;76.32;26.20;;;-0.30;99.90;;;;;;4963194;27;20097;-89
2021/01/26 07:19:25;;;;;;;78.95;26.15;;;-0.30;99.90;;;;;;4966922;27;20093;-89
2021/01/26 07:22:10;;;;;;;83.63;27.15;;;-0.30;99.90;;;;;;4973325;27;20534;-88
2021/01/26 07:24:43;;;;;;;83.57;28.58;;;-0.30;99.90;;;;;;4962741;27;20094;-88
2021/01/26 07:27:33;;;;;;;80.28;27.38;;;-0.30;99.90;;;;;;4961223;27;20086;-89
2021/01/26 07:30:16;;;;;;;93.45;27.98;;;-0.20;99.90;;;;;;4962740;27;20102;-87
2021/01/26 07:32:56;;;;;;;84.78;27.85;;;-0.20;99.90;;;;;;4962836;27;20094;-88
2021/01/26 07:35:28;;;;;;;86.05;29.30;;;-0.20;99.90;;;;;;4948139;27;20426;-88
2021/01/26 07:37:58;;;;;;;92.32;29.98;;;-0.20;99.90;;;;;;4964124;27;20124;-86
2021/01/26 07:40:32;;;;;;;86.70;28.05;;;-0.10;99.90;;;;;;4966235;27;20129;-88
2021/01/26 07:43:09;;;;;;;96.22;30.25;;;-0.10;99.90;;;;;;4966709;27;20088;-88
2021/01/26 07:45:37;;;;;;;96.25;30.25;;;0.00;99.90;;;;;;4962995;27;20166;-88
2021/01/26 07:48:08;;;;;;;99.85;31.52;;;0.00;99.90;;;;;;4964773;27;20259;-89
2021/01/26 07:50:42;;;;;;;95.68;29.83;;;0.00;99.90;;;;;;4957953;27;20088;-87
2021/01/26 07:53:16;;;;;;;109.65;32.13;;;0.10;99.90;;;;;;4965529;27;20187;-88
2021/01/26 07:55:42;;;;;;;92.18;30.95;;;0.10;99.90;;;;;;4961788;27;20096;-89
2021/01/26 07:58:08;;;;;;;98.15;30.52;;;0.10;99.90;;;;;;4955597;27;20092;-87
2021/01/26 08:00:36;;;;;;;100.55;31.58;;;0.10;99.90;;;;;;4948908;27;20088;-87
2021/01/26 08:03:06;;;;;;;90.47;30.63;;;0.10;99.90;;;;;;4949360;27;20089;-87
2021/01/26 08:05:42;;;;;;;101.95;33.03;;;0.20;99.90;;;;;;4964116;27;20529;-88
2021/01/26 08:08:07;;;;;;;;;;;0.20;99.90;;;;;;4968110;27;20097;-88
2021/01/26 08:10:32;;;;;;;86.10;29.45;;;0.20;99.90;;;;;;4967323;27;19966;-87
2021/01/26 08:13:04;;;;;;;102.20;32.50;;;0.20;99.90;;;;;;4943009;27;23076;-88
2021/01/26 08:15:31;;;;;;;84.75;30.55;;;0.20;99.90;;;;;;4958690;27;20098;-86
2021/01/26 08:17:54;;;;;;;95.00;32.30;;;0.30;99.90;;;;;;4961529;27;21830;-89
2021/01/26 08:20:30;;;;;;;95.78;32.03;;;0.30;99.90;;;;;;4968988;27;20141;-87
2021/01/26 08:22:57;;;;;;;;;;;0.30;99.90;;;;;;4946884;27;20154;-87
2021/01/26 08:25:28;;;;;;;81.18;29.70;;;0.30;99.90;;;;;;4971174;27;19964;-87
2021/01/26 08:27:56;;;;;;;106.90;32.55;;;0.40;99.90;;;;;;4939897;27;21824;-87
2021/01/26 08:30:54;;;;;;;96.45;33.30;;;0.40;99.90;;;;;;4960372;27;20086;-87
2021/01/26 08:33:20;;;;;;;99.45;34.70;;;0.50;99.90;;;;;;4926533;27;20092;-85
2021/01/26 08:36:24;;;;;;;111.60;35.50;;;0.50;99.90;;;;;;4961518;27;20101;-87
2021/01/26 08:39:39;;;;;;;100.63;32.13;;;0.50;99.90;;;;;;4943477;27;20089;-85
2021/01/26 08:42:02;;;;;;;103.72;33.80;;;0.60;99.90;;;;;;4963402;27;20105;-87
2021/01/26 08:44:55;;;;;;;108.20;35.70;;;0.70;99.90;;;;;;4971990;27;20092;-87
2021/01/26 08:47:51;;;;;;;106.80;34.35;;;0.90;99.90;;;;;;4968883;27;20537;-87
2021/01/26 08:50:28;;;;;;;116.63;35.65;;;1.00;99.90;;;;;;4966926;27;20087;-86
2021/01/26 08:52:57;;;;;;;120.22;35.53;;;1.20;99.90;;;;;;4974672;27;20094;-87
2021/01/26 08:55:38;;;;;;;102.30;36.95;;;1.20;99.90;;;;;;4959028;27;20511;-86
2021/01/26 08:58:03;;;;;;;106.78;37.38;;;1.10;99.90;;;;;;4959357;27;20517;-86
2021/01/26 09:00:59;;;;;;;89.03;31.88;;;1.10;99.90;;;;;;4949726;27;20092;-85
2021/01/26 09:03:42;;;;;;;94.72;33.92;;;;;;;;;;4896731;27;20092;-85
2021/01/26 09:07:01;;;;;;;93.88;32.08;;;0.90;99.90;;;;;;4891324;27;20089;-85
2021/01/26 09:10:09;;;;;;;96.97;32.72;;;0.80;99.90;;;;;;4903828;27;20088;-85
2021/01/26 09:13:20;;;;;;;86.68;32.05;;;0.70;99.90;;;;;;4901025;27;20170;-85
2021/01/26 09:16:08;;;;;;;97.93;34.30;;;0.80;99.90;;;;;;4873674;27;20085;-85
2021/01/26 09:36:18;;;;;;;87.63;31.92;;;0.80;99.90;;;;;;4888451;27;20090;-85
2021/01/26 09:39:25;;;;;;;101.53;33.10;;;0.70;99.90;;;;;;4900657;27;20166;-86
2021/01/26 10:48:43;;;;;;;62.30;22.33;;;1.20;99.90;;;;;;4847197;28;20084;-82
2021/01/26 10:51:14;;;;;;;67.03;22.40;;;1.30;99.90;;;;;;4883097;28;20089;-83
2021/01/26 10:53:44;;;;;;;65.45;23.10;;;1.30;99.90;;;;;;4879077;28;20816;-82
2021/01/26 10:56:09;;;;;;;59.45;21.95;;;1.30;99.90;;;;;;4879607;28;20097;-83
2021/01/26 10:58:32;;;;;;;52.63;19.15;;;;;;;;;;4877046;28;20091;-83
2021/01/26 11:00:55;;;;;;;57.83;20.70;;;1.20;99.90;;;;;;4873477;28;20097;-82
2021/01/26 11:03:24;;;;;;;54.83;21.15;;;1.20;99.90;;;;;;4869800;28;20489;-83
2021/01/26 11:05:56;;;;;;;65.85;22.17;;;1.20;99.90;;;;;;4874511;28;20090;-83
2021/01/26 11:08:19;;;;;;;54.85;21.65;;;1.30;99.90;;;;;;4869718;28;20103;-83
2021/01/26 11:10:49;;;;;;;55.78;20.50;;;1.50;99.90;;;;;;4886277;28;20100;-82
2021/01/26 11:13:11;;;;;;;55.90;20.92;;;1.50;99.90;;;;;;4871325;28;20198;-83
2021/01/26 11:15:40;;;;;;;61.28;21.70;;;1.50;99.90;;;;;;4861651;28;20765;-84
2021/01/26 11:18:03;;;;;;;53.80;20.92;;;1.50;99.90;;;;;;4871871;28;20101;-83
2021/01/26 11:20:27;;;;;;;50.80;19.80;;;1.50;99.90;;;;;;4876318;28;20097;-84
2021/01/26 11:22:51;;;;;;;47.75;18.95;;;1.50;99.90;;;;;;4868945;28;20460;-82
2021/01/26 11:25:14;;;;;;;52.33;21.08;;;1.40;99.90;;;;;;4871327;28;20095;-83
2021/01/26 11:27:38;;;;;;;48.33;19.10;;;1.50;99.90;;;;;;4881665;28;20262;-84
2021/01/26 11:30:05;;;;;;;63.08;21.13;;;1.50;99.90;;;;;;4868156;28;20104;-83
2021/01/26 11:32:28;;;;;;;57.95;20.17;;;1.50;99.90;;;;;;4871181;28;21059;-83
2021/01/26 11:34:51;;;;;;;52.90;20.65;;;0.80;99.90;;;;;;4860013;28;20088;-83
2021/01/26 11:37:14;;;;;;;54.15;20.77;;;1.70;99.90;;;;;;4852575;28;20134;-83
2021/01/26 11:39:39;;;;;;;52.33;21.15;;;1.70;99.90;;;;;;4850893;28;20092;-83
2021/01/26 11:42:01;;;;;;;56.30;21.98;;;1.70;99.90;;;;;;4853399;28;20128;-84
2021/01/26 11:44:25;;;;;;;58.65;21.88;;;1.70;99.90;;;;;;4841855;28;20096;-82
2021/01/26 11:46:49;;;;;;;61.83;22.17;;;1.70;99.90;;;;;;4853319;28;20497;-81
2021/01/26 11:49:12;;;;;;;56.85;22.50;;;;;;;;;;4855900;28;20091;-84
2021/01/26 11:51:37;;;;;;;58.33;22.60;;;1.80;99.90;;;;;;4861167;28;20091;-83
2021/01/26 11:54:01;;;;;;;62.13;24.13;;;1.90;99.90;;;;;;4856112;28;20797;-83
2021/01/26 11:56:27;;;;;;;60.38;22.42;;;1.90;99.90;;;;;;4856451;28;20163;-84
2021/01/26 11:58:51;;;;;;;52.78;21.50;;;1.80;99.90;;;;;;4857328;28;20102;-85
2021/01/26 12:01:14;;;;;;;63.47;21.45;;;1.80;99.90;;;;;;4848420;28;20095;-83
2021/01/26 12:03:37;;;;;;;56.63;21.48;;;1.80;99.90;;;;;;4858698;28;20097;-83
2021/01/26 12:06:00;;;;;;;55.00;21.33;;;1.80;99.90;;;;;;4855073;28;20095;-84
2021/01/26 12:08:24;;;;;;;46.95;19.05;;;1.70;99.90;;;;;;4856489;28;20093;-83
2021/01/26 12:10:47;;;;;;;50.50;19.95;;;1.70;99.90;;;;;;4854051;28;20093;-84
2021/01/26 12:13:13;;;;;;;53.67;20.95;;;1.60;99.90;;;;;;4867053;28;20507;-83
2021/01/26 12:15:40;;;;;;;55.47;21.30;;;1.60;99.90;;;;;;4858732;28;20099;-84
2021/01/26 12:18:11;;;;;;;54.30;21.77;;;1.60;99.90;;;;;;4860091;28;20103;-83
2021/01/26 12:20:36;;;;;;;64.15;23.88;;;1.60;99.90;;;;;;4856103;28;20578;-84
2021/01/26 12:22:59;;;;;;;69.40;25.70;;;1.50;99.90;;;;;;4851016;28;20570;-84
2021/01/26 12:25:23;;;;;;;67.47;23.88;;;1.50;99.90;;;;;;4855862;28;20098;-84
2021/01/26 12:27:47;;;;;;;67.22;24.38;;;1.50;99.90;;;;;;4854660;28;20612;-84
2021/01/26 12:30:12;;;;;;;88.32;27.23;;;1.50;99.90;;;;;;4848999;28;20469;-83
2021/01/26 12:32:35;;;;;;;77.03;25.73;;;1.60;99.90;;;;;;4856140;28;20111;-84
2021/01/26 12:35:00;;;;;;;80.43;27.73;;;1.60;99.90;;;;;;4856687;28;20146;-82
2021/01/26 12:37:23;;;;;;;80.88;27.73;;;1.60;99.90;;;;;;4855777;28;20091;-83
2021/01/26 12:39:45;;;;;;;79.32;29.92;;;1.60;99.90;;;;;;4862573;28;20098;-83
2021/01/26 12:42:12;;;;;;;81.75;30.85;;;1.50;99.90;;;;;;4860905;28;20097;-83
2021/01/26 12:44:37;;;;;;;96.75;29.73;;;1.60;99.90;;;;;;4859958;28;20458;-84
2021/01/26 12:47:03;;;;;;;85.88;29.17;;;1.60;99.90;;;;;;4854270;28;20528;-82
2021/01/26 12:49:32;;;;;;;94.60;31.23;;;1.60;99.90;;;;;;4856153;28;20428;-83
2021/01/26 12:51:56;;;;;;;86.70;32.67;;;1.60;99.90;;;;;;4862370;28;20433;-83
2021/01/26 12:54:20;;;;;;;87.57;30.95;;;1.60;99.90;;;;;;4858015;28;20175;-83
2021/01/26 12:56:44;;;;;;;101.47;31.00;;;1.60;99.90;;;;;;4856762;28;20099;-82
2021/01/26 12:59:07;;;;;;;99.45;30.92;;;1.60;99.90;;;;;;4856435;28;21145;-83
2021/01/26 13:01:30;;;;;;;102.95;31.92;;;1.60;99.90;;;;;;4863202;28;20093;-83
2021/01/26 13:03:55;;;;;;;94.90;30.58;;;;;;;;;;4864218;28;20544;-82
2021/01/26 13:06:20;;;;;;;64.47;22.60;;;1.60;99.90;;;;;;4852657;28;20089;-83
2021/01/26 13:08:42;;;;;;;88.05;31.27;;;1.60;99.90;;;;;;4857170;28;20497;-83
2021/01/26 13:11:05;;;;;;;91.00;29.70;;;1.60;99.90;;;;;;4856359;28;20140;-82
2021/01/26 13:13:29;;;;;;;84.45;29.30;;;1.60;99.90;;;;;;4874942;28;20147;-82
2021/01/26 13:15:52;;;;;;;95.72;30.67;;;;;;;;;;4871170;28;20113;-82
2021/01/26 13:18:15;;;;;;;83.38;30.42;;;1.70;99.90;;;;;;4868193;28;20116;-83
2021/01/26 13:20:41;;;;;;;93.28;29.92;;;1.60;99.90;;;;;;4870183;28;20092;-84
2021/01/26 13:23:04;;;;;;;78.60;28.80;;;1.60;99.90;;;;;;4864825;28;20094;-83
2021/01/26 13:25:27;;;;;;;87.57;29.75;;;1.60;99.90;;;;;;4855751;28;20101;-83
2021/01/26 13:27:50;;;;;;;83.05;30.50;;;1.60;99.90;;;;;;4855588;28;20099;-83
2021/01/26 13:30:17;;;;;;;79.85;28.92;;;1.60;99.90;;;;;;4853511;28;20110;-84
2021/01/26 13:32:41;;;;;;;90.15;31.02;;;1.60;99.90;;;;;;4847964;28;20515;-83
2021/01/26 13:35:05;;;;;;;73.55;28.38;;;1.60;99.90;;;;;;4845868;28;20174;-82
2021/01/26 13:37:29;;;;;;;86.60;29.85;;;1.60;99.90;;;;;;4847818;28;20093;-83
2021/01/26 13:39:58;;;;;;;78.82;28.33;;;1.70;99.90;;;;;;4851209;28;20088;-83
2021/01/26 13:42:23;;;;;;;80.30;29.08;;;1.70;99.90;;;;;;4855403;28;20090;-83
2021/01/26 13:44:47;;;;;;;86.88;30.05;;;1.70;99.90;;;;;;4855616;28;20443;-83
2021/01/26 13:47:18;;;;;;;80.93;27.67;;;1.60;99.90;;;;;;4873013;28;20087;-83
2021/01/26 13:49:42;;;;;;;80.97;28.80;;;1.60;99.90;;;;;;4868602;28;20494;-82
2021/01/26 13:52:06;;;;;;;81.10;28.85;;;1.60;99.90;;;;;;4867054;28;20096;-83
2021/01/26 13:54:30;;;;;;;91.28;29.08;;;1.60;99.90;;;;;;4864439;28;20094;-82
2021/01/26 13:56:52;;;;;;;89.97;29.23;;;;;;;;;;4855373;28;20136;-83
2021/01/26 13:59:17;;;;;;;75.63;27.98;;;1.60;99.90;;;;;;4856781;28;21681;-81
2021/01/26 14:01:40;;;;;;;86.40;28.75;;;1.60;99.90;;;;;;4855868;28;20105;-84
2021/01/26 14:04:04;;;;;;;78.75;27.83;;;1.70;99.90;;;;;;4855251;28;20108;-83
2021/01/26 14:06:33;;;;;;;90.90;26.58;;;1.70;99.90;;;;;;4848888;28;21605;-83
2021/01/26 14:08:58;;;;;;;77.18;26.13;;;1.60;99.90;;;;;;4852419;28;20095;-83
2021/01/26 14:11:21;;;;;;;78.18;26.98;;;1.60;99.90;;;;;;4860812;28;20101;-83
2021/01/26 14:13:45;;;;;;;84.38;28.00;;;1.70;99.90;;;;;;4854220;28;20097;-84
2021/01/26 14:16:10;;;;;;;65.75;24.10;;;1.70;99.90;;;;;;4866011;28;20103;-83
2021/01/26 14:18:33;;;;;;;81.57;26.85;;;1.70;99.90;;;;;;4855103;28;21940;-83
2021/01/26 14:20:58;;;;;;;66.72;23.95;;;1.70;99.90;;;;;;4855290;28;20430;-84
2021/01/26 14:23:25;;;;;;;70.78;25.58;;;1.70;99.90;;;;;;4862817;28;20430;-83
2021/01/26 14:25:48;;;;;;;70.43;24.05;;;1.70;99.90;;;;;;4854353;28;20093;-83